sensor_id;sensor_type;location;lat;lon;timestamp;P1;durP1;ratioP1;P2;durP2;ratioP2
66384;SDS011;53426;55.872;37.462;2023-01-15T00:00:59;16.67;;;11.07;;
66384;SDS011;53426;55.872;37.462;2023-01-15T00:03:26;19.70;;;10.50;;
66384;SDS011;53426;55.872;37.462;2023-01-15T00:05:52;17.05;;;10.48;;
66384;SDS011;53426;55.872;37.462;2023-01-15T00:08:18;29.92;;;11.10;;
66384;SDS011;53426;55.872;37.462;2023-01-15T00:10:44;14.82;;;8.90;;
66384;SDS011;53426;55.872;37.462;2023-01-15T00:13:10;17.15;;;10.55;;
66384;SDS011;53426;55.872;37.462;2023-01-15T00:15:37;14.23;;;7.97;;
66384;SDS011;53426;55.872;37.462;2023-01-15T00:18:03;22.65;;;9.00;;
66384;SDS011;53426;55.872;37.462;2023-01-15T00:20:29;35.67;;;9.18;;
66384;SDS011;53426;55.872;37.462;2023-01-15T00:22:55;15.40;;;10.18;;
66384;SDS011;53426;55.872;37.462;2023-01-15T00:25:21;14.27;;;10.15;;
66384;SDS011;53426;55.872;37.462;2023-01-15T00:28:05;18.15;;;11.50;;
66384;SDS011;53426;55.872;37.462;2023-01-15T00:30:31;15.52;;;10.35;;
66384;SDS011;53426;55.872;37.462;2023-01-15T00:32:58;26.90;;;11.02;;
66384;SDS011;53426;55.872;37.462;2023-01-15T00:35:24;17.33;;;7.88;;
66384;SDS011;53426;55.872;37.462;2023-01-15T00:37:50;17.40;;;10.80;;
66384;SDS011;53426;55.872;37.462;2023-01-15T00:40:17;21.13;;;12.10;;
66384;SDS011;53426;55.872;37.462;2023-01-15T00:42:47;15.00;;;7.68;;
66384;SDS011;53426;55.872;37.462;2023-01-15T00:45:13;16.95;;;10.18;;
66384;SDS011;53426;55.872;37.462;2023-01-15T00:47:41;21.40;;;11.43;;
66384;SDS011;53426;55.872;37.462;2023-01-15T00:50:10;19.08;;;10.43;;
66384;SDS011;53426;55.872;37.462;2023-01-15T00:52:37;14.65;;;8.90;;
66384;SDS011;53426;55.872;37.462;2023-01-15T00:55:04;18.13;;;11.77;;
66384;SDS011;53426;55.872;37.462;2023-01-15T00:57:30;10.57;;;7.75;;
66384;SDS011;53426;55.872;37.462;2023-01-15T01:00:07;16.60;;;9.80;;
66384;SDS011;53426;55.872;37.462;2023-01-15T01:02:42;19.02;;;11.07;;
66384;SDS011;53426;55.872;37.462;2023-01-15T01:05:16;17.05;;;9.15;;
66384;SDS011;53426;55.872;37.462;2023-01-15T01:10:08;10.57;;;6.95;;
66384;SDS011;53426;55.872;37.462;2023-01-15T01:12:35;17.50;;;9.68;;
66384;SDS011;53426;55.872;37.462;2023-01-15T01:15:01;18.80;;;10.18;;
66384;SDS011;53426;55.872;37.462;2023-01-15T01:17:30;20.02;;;11.30;;
66384;SDS011;53426;55.872;37.462;2023-01-15T01:19:58;14.10;;;8.82;;
66384;SDS011;53426;55.872;37.462;2023-01-15T01:22:29;21.80;;;10.80;;
66384;SDS011;53426;55.872;37.462;2023-01-15T01:24:55;19.90;;;11.88;;
66384;SDS011;53426;55.872;37.462;2023-01-15T01:27:22;14.32;;;10.43;;
66384;SDS011;53426;55.872;37.462;2023-01-15T01:29:48;26.40;;;8.50;;
66384;SDS011;53426;55.872;37.462;2023-01-15T01:32:14;16.92;;;9.18;;
66384;SDS011;53426;55.872;37.462;2023-01-15T01:34:39;14.95;;;10.38;;
66384;SDS011;53426;55.872;37.462;2023-01-15T01:37:07;16.95;;;9.73;;
66384;SDS011;53426;55.872;37.462;2023-01-15T01:39:36;20.45;;;12.35;;
66384;SDS011;53426;55.872;37.462;2023-01-15T01:42:09;21.17;;;11.25;;
66384;SDS011;53426;55.872;37.462;2023-01-15T01:47:39;18.75;;;10.50;;
66384;SDS011;53426;55.872;37.462;2023-01-15T01:50:06;20.05;;;10.82;;
66384;SDS011;53426;55.872;37.462;2023-01-15T01:52:37;18.80;;;11.52;;
66384;SDS011;53426;55.872;37.462;2023-01-15T01:55:11;16.30;;;8.73;;
66384;SDS011;53426;55.872;37.462;2023-01-15T01:57:40;15.30;;;8.63;;
66384;SDS011;53426;55.872;37.462;2023-01-15T02:00:08;19.80;;;11.70;;
66384;SDS011;53426;55.872;37.462;2023-01-15T02:02:40;15.20;;;9.48;;
66384;SDS011;53426;55.872;37.462;2023-01-15T02:05:08;19.77;;;9.02;;
66384;SDS011;53426;55.872;37.462;2023-01-15T02:07:40;19.00;;;9.93;;
66384;SDS011;53426;55.872;37.462;2023-01-15T02:10:12;16.27;;;8.35;;
66384;SDS011;53426;55.872;37.462;2023-01-15T02:12:45;20.92;;;9.18;;
66384;SDS011;53426;55.872;37.462;2023-01-15T02:15:24;11.63;;;7.97;;
66384;SDS011;53426;55.872;37.462;2023-01-15T02:17:55;19.75;;;9.55;;
66384;SDS011;53426;55.872;37.462;2023-01-15T02:26:34;15.63;;;10.82;;
66384;SDS011;53426;55.872;37.462;2023-01-15T02:29:01;20.10;;;10.65;;
66384;SDS011;53426;55.872;37.462;2023-01-15T02:31:35;18.60;;;10.77;;
66384;SDS011;53426;55.872;37.462;2023-01-15T02:34:05;19.42;;;8.68;;
66384;SDS011;53426;55.872;37.462;2023-01-15T02:36:39;24.70;;;9.98;;
66384;SDS011;53426;55.872;37.462;2023-01-15T02:39:17;17.05;;;10.73;;
66384;SDS011;53426;55.872;37.462;2023-01-15T02:41:47;19.70;;;10.35;;
66384;SDS011;53426;55.872;37.462;2023-01-15T02:44:20;20.25;;;11.73;;
66384;SDS011;53426;55.872;37.462;2023-01-15T02:46:53;17.23;;;8.35;;
66384;SDS011;53426;55.872;37.462;2023-01-15T02:49:22;16.75;;;10.82;;
66384;SDS011;53426;55.872;37.462;2023-01-15T02:51:54;17.95;;;9.30;;
66384;SDS011;53426;55.872;37.462;2023-01-15T02:54:23;24.33;;;10.45;;
66384;SDS011;53426;55.872;37.462;2023-01-15T02:56:56;19.52;;;10.55;;
66384;SDS011;53426;55.872;37.462;2023-01-15T02:59:29;18.15;;;11.77;;
66384;SDS011;53426;55.872;37.462;2023-01-15T03:02:02;22.70;;;11.27;;
66384;SDS011;53426;55.872;37.462;2023-01-15T03:04:36;25.25;;;11.45;;
66384;SDS011;53426;55.872;37.462;2023-01-15T03:07:26;14.40;;;9.27;;
66384;SDS011;53426;55.872;37.462;2023-01-15T03:10:14;15.50;;;8.88;;
66384;SDS011;53426;55.872;37.462;2023-01-15T03:12:49;23.30;;;11.00;;
66384;SDS011;53426;55.872;37.462;2023-01-15T03:15:59;19.60;;;9.30;;
66384;SDS011;53426;55.872;37.462;2023-01-15T03:18:54;16.20;;;9.40;;
66384;SDS011;53426;55.872;37.462;2023-01-15T03:21:27;20.83;;;10.18;;
66384;SDS011;53426;55.872;37.462;2023-01-15T03:28:32;23.90;;;8.10;;
66384;SDS011;53426;55.872;37.462;2023-01-15T03:31:03;13.00;;;9.10;;
66384;SDS011;53426;55.872;37.462;2023-01-15T03:33:29;19.33;;;10.40;;
66384;SDS011;53426;55.872;37.462;2023-01-15T03:36:09;29.83;;;10.60;;
66384;SDS011;53426;55.872;37.462;2023-01-15T03:38:53;19.15;;;8.63;;
66384;SDS011;53426;55.872;37.462;2023-01-15T03:48:00;19.92;;;10.63;;
66384;SDS011;53426;55.872;37.462;2023-01-15T04:01:12;18.63;;;10.43;;
66384;SDS011;53426;55.872;37.462;2023-01-15T04:03:42;25.05;;;11.18;;
66384;SDS011;53426;55.872;37.462;2023-01-15T04:06:10;21.65;;;10.20;;
66384;SDS011;53426;55.872;37.462;2023-01-15T04:08:38;18.58;;;11.65;;
66384;SDS011;53426;55.872;37.462;2023-01-15T04:11:07;27.38;;;12.45;;
66384;SDS011;53426;55.872;37.462;2023-01-15T04:13:40;19.83;;;10.48;;
66384;SDS011;53426;55.872;37.462;2023-01-15T04:16:16;20.48;;;10.27;;
66384;SDS011;53426;55.872;37.462;2023-01-15T04:18:48;17.13;;;9.50;;
66384;SDS011;53426;55.872;37.462;2023-01-15T04:21:14;20.23;;;11.93;;
66384;SDS011;53426;55.872;37.462;2023-01-15T04:23:41;20.73;;;12.85;;
66384;SDS011;53426;55.872;37.462;2023-01-15T04:26:07;22.58;;;11.68;;
66384;SDS011;53426;55.872;37.462;2023-01-15T04:28:33;25.48;;;11.60;;
66384;SDS011;53426;55.872;37.462;2023-01-15T04:30:59;20.38;;;9.38;;
66384;SDS011;53426;55.872;37.462;2023-01-15T04:33:27;15.02;;;10.55;;
66384;SDS011;53426;55.872;37.462;2023-01-15T04:39:33;27.95;;;12.15;;
66384;SDS011;53426;55.872;37.462;2023-01-15T04:41:59;25.92;;;12.68;;
66384;SDS011;53426;55.872;37.462;2023-01-15T04:44:44;20.67;;;11.05;;
66384;SDS011;53426;55.872;37.462;2023-01-15T04:47:10;20.13;;;11.50;;
66384;SDS011;53426;55.872;37.462;2023-01-15T04:49:35;28.75;;;11.82;;
66384;SDS011;53426;55.872;37.462;2023-01-15T04:52:01;29.05;;;10.82;;
66384;SDS011;53426;55.872;37.462;2023-01-15T04:54:27;26.40;;;12.32;;
66384;SDS011;53426;55.872;37.462;2023-01-15T04:56:53;21.25;;;11.60;;
66384;SDS011;53426;55.872;37.462;2023-01-15T04:59:21;22.75;;;12.57;;
66384;SDS011;53426;55.872;37.462;2023-01-15T05:01:50;23.05;;;11.02;;
66384;SDS011;53426;55.872;37.462;2023-01-15T05:04:16;18.55;;;10.52;;
66384;SDS011;53426;55.872;37.462;2023-01-15T05:06:42;28.10;;;11.65;;
66384;SDS011;53426;55.872;37.462;2023-01-15T05:09:11;17.85;;;11.32;;
66384;SDS011;53426;55.872;37.462;2023-01-15T05:11:38;27.65;;;12.07;;
66384;SDS011;53426;55.872;37.462;2023-01-15T05:14:05;27.38;;;11.43;;
66384;SDS011;53426;55.872;37.462;2023-01-15T05:16:32;21.20;;;9.07;;
66384;SDS011;53426;55.872;37.462;2023-01-15T05:19:02;20.80;;;10.25;;
66384;SDS011;53426;55.872;37.462;2023-01-15T05:21:30;21.20;;;11.68;;
66384;SDS011;53426;55.872;37.462;2023-01-15T05:23:59;23.13;;;11.15;;
66384;SDS011;53426;55.872;37.462;2023-01-15T05:29:24;19.77;;;8.50;;
66384;SDS011;53426;55.872;37.462;2023-01-15T05:35:52;25.73;;;11.18;;
66384;SDS011;53426;55.872;37.462;2023-01-15T05:38:18;20.92;;;11.98;;
66384;SDS011;53426;55.872;37.462;2023-01-15T05:40:44;25.23;;;9.93;;
66384;SDS011;53426;55.872;37.462;2023-01-15T05:43:10;19.33;;;10.35;;
66384;SDS011;53426;55.872;37.462;2023-01-15T05:48:27;16.88;;;9.15;;
66384;SDS011;53426;55.872;37.462;2023-01-15T05:50:53;24.20;;;11.25;;
66384;SDS011;53426;55.872;37.462;2023-01-15T05:53:20;24.10;;;11.25;;
66384;SDS011;53426;55.872;37.462;2023-01-15T05:56:05;21.13;;;12.43;;
66384;SDS011;53426;55.872;37.462;2023-01-15T05:58:34;14.77;;;8.00;;
66384;SDS011;53426;55.872;37.462;2023-01-15T06:01:00;22.50;;;9.35;;
66384;SDS011;53426;55.872;37.462;2023-01-15T06:03:31;30.02;;;9.98;;
66384;SDS011;53426;55.872;37.462;2023-01-15T06:05:57;26.83;;;9.27;;
66384;SDS011;53426;55.872;37.462;2023-01-15T06:08:23;19.73;;;9.60;;
66384;SDS011;53426;55.872;37.462;2023-01-15T06:10:49;20.30;;;12.25;;
66384;SDS011;53426;55.872;37.462;2023-01-15T06:13:16;35.85;;;11.60;;
66384;SDS011;53426;55.872;37.462;2023-01-15T06:15:54;20.88;;;8.68;;
66384;SDS011;53426;55.872;37.462;2023-01-15T06:18:21;18.25;;;10.75;;
66384;SDS011;53426;55.872;37.462;2023-01-15T06:20:50;30.45;;;10.57;;
66384;SDS011;53426;55.872;37.462;2023-01-15T06:23:16;26.42;;;9.43;;
66384;SDS011;53426;55.872;37.462;2023-01-15T06:26:02;29.13;;;11.65;;
66384;SDS011;53426;55.872;37.462;2023-01-15T06:28:37;33.40;;;9.27;;
66384;SDS011;53426;55.872;37.462;2023-01-15T06:31:07;16.88;;;9.95;;
66384;SDS011;53426;55.872;37.462;2023-01-15T06:33:37;21.40;;;11.00;;
66384;SDS011;53426;55.872;37.462;2023-01-15T06:36:06;25.90;;;10.25;;
66384;SDS011;53426;55.872;37.462;2023-01-15T06:38:35;30.33;;;11.68;;
66384;SDS011;53426;55.872;37.462;2023-01-15T06:41:02;30.17;;;10.75;;
66384;SDS011;53426;55.872;37.462;2023-01-15T06:43:49;33.38;;;11.55;;
66384;SDS011;53426;55.872;37.462;2023-01-15T06:46:33;24.05;;;10.95;;
66384;SDS011;53426;55.872;37.462;2023-01-15T06:49:20;20.13;;;9.65;;
66384;SDS011;53426;55.872;37.462;2023-01-15T06:51:46;39.70;;;10.60;;
66384;SDS011;53426;55.872;37.462;2023-01-15T06:57:31;22.05;;;9.68;;
66384;SDS011;53426;55.872;37.462;2023-01-15T06:59:59;23.65;;;11.05;;
66384;SDS011;53426;55.872;37.462;2023-01-15T07:02:25;35.08;;;11.10;;
66384;SDS011;53426;55.872;37.462;2023-01-15T07:04:54;36.67;;;11.38;;
66384;SDS011;53426;55.872;37.462;2023-01-15T07:07:37;31.75;;;10.65;;
66384;SDS011;53426;55.872;37.462;2023-01-15T07:10:03;23.25;;;10.48;;
66384;SDS011;53426;55.872;37.462;2023-01-15T07:12:30;19.80;;;9.57;;
66384;SDS011;53426;55.872;37.462;2023-01-15T07:14:55;24.65;;;11.48;;
66384;SDS011;53426;55.872;37.462;2023-01-15T07:17:21;27.90;;;10.55;;
66384;SDS011;53426;55.872;37.462;2023-01-15T07:19:47;27.23;;;10.65;;
66384;SDS011;53426;55.872;37.462;2023-01-15T07:22:13;28.60;;;12.20;;
66384;SDS011;53426;55.872;37.462;2023-01-15T07:24:40;25.05;;;10.60;;
66384;SDS011;53426;55.872;37.462;2023-01-15T07:27:08;23.27;;;11.35;;
66384;SDS011;53426;55.872;37.462;2023-01-15T07:29:34;24.25;;;10.18;;
66384;SDS011;53426;55.872;37.462;2023-01-15T07:31:59;27.67;;;10.25;;
66384;SDS011;53426;55.872;37.462;2023-01-15T07:34:25;22.02;;;10.93;;
66384;SDS011;53426;55.872;37.462;2023-01-15T07:40:08;23.38;;;10.07;;
66384;SDS011;53426;55.872;37.462;2023-01-15T07:42:34;19.88;;;10.82;;
66384;SDS011;53426;55.872;37.462;2023-01-15T07:45:19;25.85;;;10.30;;
66384;SDS011;53426;55.872;37.462;2023-01-15T07:48:06;29.70;;;11.25;;
66384;SDS011;53426;55.872;37.462;2023-01-15T07:50:53;25.73;;;10.15;;
66384;SDS011;53426;55.872;37.462;2023-01-15T07:53:19;38.05;;;11.93;;
66384;SDS011;53426;55.872;37.462;2023-01-15T07:55:45;23.33;;;9.82;;
66384;SDS011;53426;55.872;37.462;2023-01-15T07:58:11;27.90;;;10.23;;
66384;SDS011;53426;55.872;37.462;2023-01-15T08:00:36;33.55;;;10.30;;
66384;SDS011;53426;55.872;37.462;2023-01-15T08:03:02;25.98;;;9.63;;
66384;SDS011;53426;55.872;37.462;2023-01-15T08:05:28;23.58;;;11.20;;
66384;SDS011;53426;55.872;37.462;2023-01-15T08:07:54;30.45;;;12.07;;
66384;SDS011;53426;55.872;37.462;2023-01-15T08:10:19;19.98;;;10.40;;
66384;SDS011;53426;55.872;37.462;2023-01-15T08:12:48;31.00;;;11.85;;
66384;SDS011;53426;55.872;37.462;2023-01-15T08:15:36;27.05;;;11.52;;
66384;SDS011;53426;55.872;37.462;2023-01-15T08:18:03;28.77;;;10.95;;
66384;SDS011;53426;55.872;37.462;2023-01-15T08:20:30;32.53;;;11.35;;
66384;SDS011;53426;55.872;37.462;2023-01-15T08:22:55;24.85;;;10.15;;
66384;SDS011;53426;55.872;37.462;2023-01-15T08:25:22;27.27;;;11.65;;
66384;SDS011;53426;55.872;37.462;2023-01-15T08:27:49;30.52;;;12.45;;
66384;SDS011;53426;55.872;37.462;2023-01-15T08:30:17;28.45;;;11.82;;
66384;SDS011;53426;55.872;37.462;2023-01-15T08:32:44;31.65;;;12.35;;
66384;SDS011;53426;55.872;37.462;2023-01-15T08:35:12;31.50;;;13.60;;
66384;SDS011;53426;55.872;37.462;2023-01-15T08:37:41;32.90;;;12.75;;
66384;SDS011;53426;55.872;37.462;2023-01-15T08:40:08;25.48;;;12.23;;
66384;SDS011;53426;55.872;37.462;2023-01-15T08:42:35;39.85;;;13.02;;
66384;SDS011;53426;55.872;37.462;2023-01-15T08:45:01;35.05;;;11.95;;
66384;SDS011;53426;55.872;37.462;2023-01-15T08:47:29;25.20;;;13.20;;
66384;SDS011;53426;55.872;37.462;2023-01-15T08:49:56;52.55;;;16.75;;
66384;SDS011;53426;55.872;37.462;2023-01-15T08:52:22;19.95;;;9.13;;
66384;SDS011;53426;55.872;37.462;2023-01-15T08:54:48;28.05;;;11.35;;
66384;SDS011;53426;55.872;37.462;2023-01-15T08:57:13;22.65;;;10.20;;
66384;SDS011;53426;55.872;37.462;2023-01-15T08:59:39;28.67;;;9.60;;
66384;SDS011;53426;55.872;37.462;2023-01-15T09:02:09;21.02;;;11.68;;
66384;SDS011;53426;55.872;37.462;2023-01-15T09:04:37;34.60;;;12.90;;
66384;SDS011;53426;55.872;37.462;2023-01-15T09:07:03;37.20;;;13.18;;
66384;SDS011;53426;55.872;37.462;2023-01-15T09:12:21;29.83;;;10.30;;
66384;SDS011;53426;55.872;37.462;2023-01-15T09:14:49;23.08;;;10.43;;
66384;SDS011;53426;55.872;37.462;2023-01-15T09:17:14;30.42;;;13.23;;
66384;SDS011;53426;55.872;37.462;2023-01-15T09:19:44;30.42;;;14.18;;
66384;SDS011;53426;55.872;37.462;2023-01-15T09:22:10;27.85;;;12.52;;
66384;SDS011;53426;55.872;37.462;2023-01-15T09:24:36;40.97;;;13.35;;
66384;SDS011;53426;55.872;37.462;2023-01-15T09:27:02;20.95;;;11.73;;
66384;SDS011;53426;55.872;37.462;2023-01-15T09:29:28;33.60;;;14.13;;
66384;SDS011;53426;55.872;37.462;2023-01-15T09:31:54;34.65;;;13.77;;
66384;SDS011;53426;55.872;37.462;2023-01-15T09:34:20;32.58;;;12.48;;
66384;SDS011;53426;55.872;37.462;2023-01-15T09:36:45;21.73;;;10.63;;
66384;SDS011;53426;55.872;37.462;2023-01-15T09:39:11;28.50;;;12.68;;
66384;SDS011;53426;55.872;37.462;2023-01-15T09:44:48;26.60;;;11.63;;
66384;SDS011;53426;55.872;37.462;2023-01-15T09:52:59;32.90;;;12.75;;
66384;SDS011;53426;55.872;37.462;2023-01-15T09:55:44;31.30;;;13.40;;
66384;SDS011;53426;55.872;37.462;2023-01-15T09:58:13;27.58;;;12.00;;
66384;SDS011;53426;55.872;37.462;2023-01-15T10:00:45;29.05;;;12.05;;
66384;SDS011;53426;55.872;37.462;2023-01-15T10:08:35;23.23;;;11.55;;
66384;SDS011;53426;55.872;37.462;2023-01-15T10:11:16;10.60;;;8.20;;
66384;SDS011;53426;55.872;37.462;2023-01-15T10:13:51;35.47;;;10.68;;
66384;SDS011;53426;55.872;37.462;2023-01-15T10:16:47;24.52;;;11.35;;
66384;SDS011;53426;55.872;37.462;2023-01-15T10:19:15;30.08;;;11.20;;
66384;SDS011;53426;55.872;37.462;2023-01-15T10:21:53;19.20;;;10.93;;
66384;SDS011;53426;55.872;37.462;2023-01-15T10:24:36;21.80;;;12.77;;
66384;SDS011;53426;55.872;37.462;2023-01-15T10:27:25;24.85;;;10.07;;
66384;SDS011;53426;55.872;37.462;2023-01-15T10:29:59;21.42;;;8.88;;
66384;SDS011;53426;55.872;37.462;2023-01-15T10:35:21;23.33;;;12.18;;
66384;SDS011;53426;55.872;37.462;2023-01-15T10:46:10;24.17;;;10.75;;
66384;SDS011;53426;55.872;37.462;2023-01-15T10:48:40;23.17;;;10.70;;
66384;SDS011;53426;55.872;37.462;2023-01-15T10:51:53;23.50;;;10.63;;
66384;SDS011;53426;55.872;37.462;2023-01-15T10:54:06;15.60;;;7.38;;
66384;SDS011;53426;55.872;37.462;2023-01-15T10:56:48;26.17;;;11.35;;
66384;SDS011;53426;55.872;37.462;2023-01-15T11:02:30;28.40;;;10.35;;
66384;SDS011;53426;55.872;37.462;2023-01-15T11:05:04;17.80;;;8.75;;
66384;SDS011;53426;55.872;37.462;2023-01-15T11:07:38;22.92;;;11.48;;
66384;SDS011;53426;55.872;37.462;2023-01-15T11:10:08;27.40;;;11.27;;
66384;SDS011;53426;55.872;37.462;2023-01-15T11:12:39;24.88;;;10.68;;
66384;SDS011;53426;55.872;37.462;2023-01-15T11:15:34;22.90;;;9.38;;
66384;SDS011;53426;55.872;37.462;2023-01-15T11:18:27;19.70;;;6.73;;
66384;SDS011;53426;55.872;37.462;2023-01-15T11:21:16;27.33;;;8.38;;
66384;SDS011;53426;55.872;37.462;2023-01-15T11:23:44;11.80;;;6.10;;
66384;SDS011;53426;55.872;37.462;2023-01-15T11:26:20;13.63;;;7.13;;
66384;SDS011;53426;55.872;37.462;2023-01-15T11:28:54;19.70;;;9.65;;
66384;SDS011;53426;55.872;37.462;2023-01-15T11:31:21;10.70;;;6.13;;
66384;SDS011;53426;55.872;37.462;2023-01-15T11:33:56;10.88;;;7.18;;
66384;SDS011;53426;55.872;37.462;2023-01-15T11:36:27;19.95;;;9.05;;
66384;SDS011;53426;55.872;37.462;2023-01-15T11:38:59;15.60;;;8.85;;
66384;SDS011;53426;55.872;37.462;2023-01-15T11:44:53;14.10;;;7.63;;
66384;SDS011;53426;55.872;37.462;2023-01-15T11:48:22;18.02;;;9.32;;
66384;SDS011;53426;55.872;37.462;2023-01-15T11:51:08;15.73;;;9.40;;
66384;SDS011;53426;55.872;37.462;2023-01-15T11:53:37;21.10;;;9.48;;
66384;SDS011;53426;55.872;37.462;2023-01-15T11:56:19;16.05;;;8.57;;
66384;SDS011;53426;55.872;37.462;2023-01-15T11:58:50;19.50;;;9.25;;
66384;SDS011;53426;55.872;37.462;2023-01-15T12:04:44;22.45;;;9.13;;
66384;SDS011;53426;55.872;37.462;2023-01-15T12:07:13;18.70;;;6.15;;
66384;SDS011;53426;55.872;37.462;2023-01-15T12:09:54;14.10;;;7.93;;
66384;SDS011;53426;55.872;37.462;2023-01-15T12:12:58;18.23;;;8.35;;
66384;SDS011;53426;55.872;37.462;2023-01-15T12:18:49;15.35;;;6.35;;
66384;SDS011;53426;55.872;37.462;2023-01-15T12:21:43;15.00;;;8.40;;
66384;SDS011;53426;55.872;37.462;2023-01-15T12:24:49;15.77;;;7.53;;
66384;SDS011;53426;55.872;37.462;2023-01-15T12:30:18;14.73;;;7.93;;
66384;SDS011;53426;55.872;37.462;2023-01-15T12:35:31;15.32;;;6.30;;
66384;SDS011;53426;55.872;37.462;2023-01-15T12:40:50;12.45;;;5.57;;
66384;SDS011;53426;55.872;37.462;2023-01-15T12:43:25;12.93;;;7.28;;
66384;SDS011;53426;55.872;37.462;2023-01-15T12:46:18;21.75;;;6.93;;
66384;SDS011;53426;55.872;37.462;2023-01-15T12:49:08;11.27;;;6.63;;
66384;SDS011;53426;55.872;37.462;2023-01-15T12:51:48;17.63;;;7.93;;
66384;SDS011;53426;55.872;37.462;2023-01-15T12:54:23;23.42;;;7.60;;
66384;SDS011;53426;55.872;37.462;2023-01-15T12:57:07;18.45;;;5.53;;
66384;SDS011;53426;55.872;37.462;2023-01-15T13:07:52;10.88;;;6.30;;
66384;SDS011;53426;55.872;37.462;2023-01-15T13:14:26;8.80;;;6.07;;
66384;SDS011;53426;55.872;37.462;2023-01-15T13:19:25;7.38;;;6.20;;
66384;SDS011;53426;55.872;37.462;2023-01-15T13:22:18;16.75;;;5.85;;
66384;SDS011;53426;55.872;37.462;2023-01-15T13:30:25;19.00;;;7.40;;
66384;SDS011;53426;55.872;37.462;2023-01-15T13:33:29;5.90;;;4.40;;
66384;SDS011;53426;55.872;37.462;2023-01-15T13:36:16;7.53;;;4.03;;
66384;SDS011;53426;55.872;37.462;2023-01-15T13:38:50;10.30;;;5.47;;
66384;SDS011;53426;55.872;37.462;2023-01-15T13:41:20;13.70;;;5.82;;
66384;SDS011;53426;55.872;37.462;2023-01-15T13:44:28;11.13;;;5.78;;
66384;SDS011;53426;55.872;37.462;2023-01-15T13:47:03;14.40;;;5.68;;
66384;SDS011;53426;55.872;37.462;2023-01-15T13:49:33;10.23;;;6.15;;
66384;SDS011;53426;55.872;37.462;2023-01-15T13:52:03;10.40;;;5.28;;
66384;SDS011;53426;55.872;37.462;2023-01-15T13:54:34;10.23;;;6.18;;
66384;SDS011;53426;55.872;37.462;2023-01-15T13:57:08;15.30;;;7.18;;
66384;SDS011;53426;55.872;37.462;2023-01-15T13:59:45;12.63;;;6.25;;
66384;SDS011;53426;55.872;37.462;2023-01-15T14:02:28;13.57;;;6.30;;
66384;SDS011;53426;55.872;37.462;2023-01-15T14:04:59;13.30;;;6.22;;
66384;SDS011;53426;55.872;37.462;2023-01-15T14:07:36;8.85;;;4.95;;
66384;SDS011;53426;55.872;37.462;2023-01-15T14:10:17;20.40;;;6.55;;
66384;SDS011;53426;55.872;37.462;2023-01-15T14:31:05;8.57;;;5.43;;
66384;SDS011;53426;55.872;37.462;2023-01-15T14:37:23;19.77;;;5.72;;
66384;SDS011;53426;55.872;37.462;2023-01-15T14:39:58;4.68;;;3.83;;
66384;SDS011;53426;55.872;37.462;2023-01-15T14:42:30;8.75;;;4.88;;
66384;SDS011;53426;55.872;37.462;2023-01-15T14:45:31;13.55;;;6.88;;
66384;SDS011;53426;55.872;37.462;2023-01-15T14:48:01;10.95;;;5.18;;
66384;SDS011;53426;55.872;37.462;2023-01-15T14:50:40;11.85;;;6.75;;
66384;SDS011;53426;55.872;37.462;2023-01-15T15:06:47;8.95;;;4.90;;
66384;SDS011;53426;55.872;37.462;2023-01-15T15:14:50;8.88;;;4.05;;
66384;SDS011;53426;55.872;37.462;2023-01-15T15:17:29;8.63;;;5.47;;
66384;SDS011;53426;55.872;37.462;2023-01-15T15:20:16;14.27;;;5.45;;
66384;SDS011;53426;55.872;37.462;2023-01-15T15:22:54;13.35;;;7.50;;
66384;SDS011;53426;55.872;37.462;2023-01-15T15:25:27;10.90;;;6.13;;
66384;SDS011;53426;55.872;37.462;2023-01-15T15:28:00;13.82;;;6.38;;
66384;SDS011;53426;55.872;37.462;2023-01-15T15:30:30;13.52;;;5.82;;
66384;SDS011;53426;55.872;37.462;2023-01-15T15:32:59;21.10;;;6.38;;
66384;SDS011;53426;55.872;37.462;2023-01-15T15:35:29;11.98;;;6.80;;
66384;SDS011;53426;55.872;37.462;2023-01-15T15:38:02;13.32;;;7.00;;
66384;SDS011;53426;55.872;37.462;2023-01-15T15:40:33;15.27;;;6.38;;
66384;SDS011;53426;55.872;37.462;2023-01-15T15:45:56;13.90;;;6.10;;
66384;SDS011;53426;55.872;37.462;2023-01-15T15:52:20;8.52;;;5.68;;
66384;SDS011;53426;55.872;37.462;2023-01-15T15:55:13;8.30;;;5.95;;
66384;SDS011;53426;55.872;37.462;2023-01-15T15:57:40;25.30;;;8.85;;
66384;SDS011;53426;55.872;37.462;2023-01-15T16:00:14;17.75;;;8.35;;
66384;SDS011;53426;55.872;37.462;2023-01-15T16:02:42;15.43;;;8.10;;
66384;SDS011;53426;55.872;37.462;2023-01-15T16:08:54;15.63;;;7.78;;
66384;SDS011;53426;55.872;37.462;2023-01-15T16:11:46;13.98;;;6.90;;
66384;SDS011;53426;55.872;37.462;2023-01-15T16:18:30;9.30;;;6.28;;
66384;SDS011;53426;55.872;37.462;2023-01-15T16:21:00;8.95;;;5.40;;
66384;SDS011;53426;55.872;37.462;2023-01-15T16:23:27;17.73;;;5.32;;
66384;SDS011;53426;55.872;37.462;2023-01-15T16:26:13;11.70;;;7.45;;
66384;SDS011;53426;55.872;37.462;2023-01-15T16:28:49;11.30;;;7.70;;
66384;SDS011;53426;55.872;37.462;2023-01-15T16:31:19;12.02;;;6.97;;
66384;SDS011;53426;55.872;37.462;2023-01-15T16:33:51;14.38;;;7.38;;
66384;SDS011;53426;55.872;37.462;2023-01-15T16:36:21;11.18;;;7.22;;
66384;SDS011;53426;55.872;37.462;2023-01-15T16:39:12;12.10;;;6.95;;
66384;SDS011;53426;55.872;37.462;2023-01-15T16:41:53;11.65;;;6.18;;
66384;SDS011;53426;55.872;37.462;2023-01-15T16:44:50;16.10;;;7.32;;
66384;SDS011;53426;55.872;37.462;2023-01-15T16:47:22;16.67;;;5.63;;
66384;SDS011;53426;55.872;37.462;2023-01-15T16:53:55;9.82;;;6.60;;
66384;SDS011;53426;55.872;37.462;2023-01-15T17:05:12;12.40;;;6.80;;
66384;SDS011;53426;55.872;37.462;2023-01-15T17:07:45;15.10;;;7.55;;
66384;SDS011;53426;55.872;37.462;2023-01-15T17:10:18;14.68;;;5.80;;
66384;SDS011;53426;55.872;37.462;2023-01-15T17:12:49;9.35;;;6.05;;
66384;SDS011;53426;55.872;37.462;2023-01-15T17:17:43;12.00;;;5.97;;
66384;SDS011;53426;55.872;37.462;2023-01-15T17:20:11;12.45;;;7.85;;
66384;SDS011;53426;55.872;37.462;2023-01-15T17:22:47;16.00;;;8.23;;
66384;SDS011;53426;55.872;37.462;2023-01-15T17:27:50;11.13;;;7.63;;
66384;SDS011;53426;55.872;37.462;2023-01-15T17:30:18;18.27;;;6.93;;
66384;SDS011;53426;55.872;37.462;2023-01-15T17:32:55;21.85;;;8.15;;
66384;SDS011;53426;55.872;37.462;2023-01-15T17:35:29;11.73;;;6.38;;
66384;SDS011;53426;55.872;37.462;2023-01-15T17:38:03;12.07;;;6.60;;
66384;SDS011;53426;55.872;37.462;2023-01-15T17:40:31;14.38;;;6.50;;
66384;SDS011;53426;55.872;37.462;2023-01-15T17:42:57;14.90;;;8.25;;
66384;SDS011;53426;55.872;37.462;2023-01-15T17:45:50;21.83;;;10.10;;
66384;SDS011;53426;55.872;37.462;2023-01-15T17:48:16;16.23;;;8.60;;
66384;SDS011;53426;55.872;37.462;2023-01-15T17:50:43;16.05;;;8.80;;
66384;SDS011;53426;55.872;37.462;2023-01-15T17:53:08;15.30;;;8.10;;
66384;SDS011;53426;55.872;37.462;2023-01-15T17:55:40;18.80;;;9.90;;
66384;SDS011;53426;55.872;37.462;2023-01-15T17:58:25;18.48;;;9.50;;
66384;SDS011;53426;55.872;37.462;2023-01-15T18:01:10;13.20;;;6.57;;
66384;SDS011;53426;55.872;37.462;2023-01-15T18:03:59;19.23;;;10.88;;